Time;durP1;ratioP1;P1;durP2;ratioP2;P2;SDS_P1;SDS_P2;PMS_P1;PMS_P2;Temp;Humidity;BMP_temperature;BMP_pressure;BME280_temperature;BME280_humidity;BME280_pressure;Samples;Min_cycle;Max_cycle;Signal;HPM_P1;HPM_P2
2024/05/01 00:00:45;;;;;;;19.03;5.20;;;;;;;;;;5433241;27;20002;-83
2024/05/01 00:03:15;;;;;;;12.83;4.33;;;;;;;;;;5459836;27;19994;-83
2024/05/01 00:05:45;;;;;;;13.35;4.40;;;;;;;;;;5460511;27;19998;-83
2024/05/01 00:08:15;;;;;;;17.67;4.53;;;;;;;;;;5459637;27;19994;-84
2024/05/01 00:10:46;;;;;;;12.20;4.67;;;;;;;;;;5459915;27;20077;-81
2024/05/01 00:13:16;;;;;;;16.23;4.83;;;;;;;;;;5458934;27;20006;-82
2024/05/01 00:15:46;;;;;;;18.57;5.30;;;;;;;;;;5460084;27;20002;-83
2024/05/01 00:18:16;;;;;;;17.60;4.95;;;;;;;;;;5459782;27;20352;-82
2024/05/01 00:20:47;;;;;;;14.23;4.60;;;;;;;;;;5429718;27;20006;-82
2024/05/01 00:23:17;;;;;;;18.93;5.20;;;;;;;;;;5459664;27;19994;-83
2024/05/01 00:25:47;;;;;;;12.77;4.80;;;;;;;;;;5438028;27;20333;-83
2024/05/01 00:28:17;;;;;;;18.08;4.60;;;;;;;;;;5463690;27;20005;-84
2024/05/01 00:30:48;;;;;;;19.40;4.70;;;;;;;;;;5464715;27;19998;-84
2024/05/01 00:33:18;;;;;;;13.97;4.43;;;;;;;;;;5465288;27;19990;-84
2024/05/01 00:35:48;;;;;;;13.75;4.25;;;;;;;;;;5448367;27;20018;-84
2024/05/01 00:38:21;;;;;;;12.07;4.17;;;;;;;;;;5449306;27;20012;-84
2024/05/01 00:40:52;;;;;;;11.68;3.83;;;;;;;;;;5439422;27;20449;-83
2024/05/01 00:43:22;;;;;;;13.83;4.93;;;;;;;;;;5449688;27;20081;-84
2024/05/01 00:45:52;;;;;;;14.63;4.10;;;;;;;;;;5449818;27;20357;-84
2024/05/01 00:48:22;;;;;;;13.95;4.22;;;;;;;;;;5464472;27;20010;-84
2024/05/01 00:50:53;;;;;;;15.10;4.32;;;;;;;;;;5464890;27;20009;-84
2024/05/01 00:53:23;;;;;;;19.45;4.53;;;;;;;;;;5465123;27;20003;-84
2024/05/01 00:55:53;;;;;;;14.10;4.27;;;;;;;;;;5464525;27;19998;-84
2024/05/01 00:58:24;;;;;;;10.23;3.78;;;;;;;;;;5448929;27;20006;-84
2024/05/01 01:00:55;;;;;;;11.82;4.00;;;;;;;;;;5448513;27;20002;-83
2024/05/01 01:03:25;;;;;;;11.30;4.40;;;;;;;;;;5464926;27;20006;-83
2024/05/01 01:05:56;;;;;;;16.67;4.27;;;;;;;;;;5465062;27;20010;-84
2024/05/01 01:08:29;;;;;;;22.80;4.80;;;;;;;;;;5464889;27;20337;-84
2024/05/01 01:11:09;;;;;;;13.68;4.20;;;;;;;;;;5464211;27;20372;-84
2024/05/01 01:13:39;;;;;;;13.07;4.20;;;;;;;;;;5464734;27;20009;-84
2024/05/01 01:16:10;;;;;;;16.75;4.45;;;;;;;;;;5465475;27;20325;-84
2024/05/01 01:18:48;;;;;;;14.00;4.82;;;;;;;;;;5440299;27;19998;-84
2024/05/01 01:21:18;;;;;;;9.63;4.03;;;;;;;;;;5451806;27;20002;-84
2024/05/01 01:23:51;;;;;;;18.30;4.97;;;;;;;;;;5464596;27;20070;-83
2024/05/01 01:26:21;;;;;;;14.13;4.80;;;;;;;;;;5465546;27;20460;-83
2024/05/01 01:28:51;;;;;;;16.65;5.00;;;;;;;;;;5464933;27;19998;-83
2024/05/01 01:31:21;;;;;;;11.77;5.00;;;;;;;;;;5446607;27;20002;-83
2024/05/01 01:33:52;;;;;;;16.10;4.30;;;;;;;;;;5464817;27;20006;-83
2024/05/01 01:36:22;;;;;;;16.57;5.00;;;;;;;;;;5464568;27;20018;-83
2024/05/01 01:38:55;;;;;;;10.40;4.25;;;;;;;;;;5463160;27;20025;-82
2024/05/01 01:41:26;;;;;;;11.70;4.25;;;;;;;;;;5464822;27;19999;-83
2024/05/01 01:43:57;;;;;;;15.10;4.53;;;;;;;;;;5465001;27;20041;-83
2024/05/01 01:46:30;;;;;;;11.80;4.60;;;;;;;;;;5465018;27;20452;-83
2024/05/01 01:49:01;;;;;;;12.73;4.82;;;;;;;;;;5459163;27;20448;-83
2024/05/01 01:51:33;;;;;;;10.35;4.22;;;;;;;;;;5464504;27;20019;-84
2024/05/01 01:54:05;;;;;;;11.57;4.00;;;;;;;;;;5464479;27;20018;-84
2024/05/01 01:56:39;;;;;;;13.55;5.20;;;;;;;;;;5448483;27;20010;-83
2024/05/01 01:59:15;;;;;;;17.77;4.30;;;;;;;;;;5464796;27;20013;-83
2024/05/01 02:01:45;;;;;;;14.13;4.90;;;;;;;;;;5465205;27;20355;-83
2024/05/01 02:04:16;;;;;;;17.40;4.68;;;;;;;;;;5464159;27;19998;-83
2024/05/01 02:06:46;;;;;;;9.95;4.28;;;;;;;;;;5465528;27;20001;-83
2024/05/01 02:09:16;;;;;;;11.95;4.82;;;;;;;;;;5464366;27;19999;-83
2024/05/01 02:11:46;;;;;;;17.25;4.82;;;;;;;;;;5465317;27;20069;-83
2024/05/01 02:14:17;;;;;;;15.18;4.57;;;;;;;;;;5464418;27;19998;-83
2024/05/01 02:16:47;;;;;;;13.13;4.68;;;;;;;;;;5464882;27;20333;-83
2024/05/01 02:19:18;;;;;;;18.95;4.95;;;;;;;;;;5464111;27;20342;-83
2024/05/01 02:21:48;;;;;;;18.40;5.63;;;;;;;;;;5448915;27;19998;-83
2024/05/01 02:24:18;;;;;;;17.55;5.22;;;;;;;;;;5464049;27;20076;-83
2024/05/01 02:26:48;;;;;;;13.30;4.65;;;;;;;;;;5463932;27;19994;-83
2024/05/01 02:29:19;;;;;;;15.25;4.88;;;;;;;;;;5464887;27;20005;-83
2024/05/01 02:31:52;;;;;;;14.88;5.25;;;;;;;;;;5463471;27;20010;-83
2024/05/01 02:34:22;;;;;;;15.70;4.65;;;;;;;;;;5434218;27;20002;-83
2024/05/01 02:36:52;;;;;;;12.88;4.25;;;;;;;;;;5447780;27;20315;-83
2024/05/01 02:39:22;;;;;;;13.43;4.80;;;;;;;;;;5463481;27;19994;-83
2024/05/01 02:41:53;;;;;;;15.45;4.93;;;;;;;;;;5463705;27;20005;-83
2024/05/01 02:44:26;;;;;;;13.40;4.65;;;;;;;;;;5447526;27;20017;-84
2024/05/01 02:46:56;;;;;;;11.80;4.63;;;;;;;;;;5463679;27;20002;-83
2024/05/01 02:49:27;;;;;;;15.40;5.20;;;;;;;;;;5462857;27;20022;-83
2024/05/01 02:51:57;;;;;;;13.30;4.82;;;;;;;;;;5463559;27;19995;-83
2024/05/01 02:54:27;;;;;;;15.87;4.73;;;;;;;;;;5464676;27;20009;-83
2024/05/01 02:56:57;;;;;;;14.15;4.82;;;;;;;;;;5453065;27;20001;-83
2024/05/01 02:59:28;;;;;;;12.77;4.72;;;;;;;;;;5464121;27;20464;-83
2024/05/01 03:01:58;;;;;;;9.48;3.95;;;;;;;;;;5462388;27;20042;-83
2024/05/01 03:04:28;;;;;;;13.05;4.70;;;;;;;;;;5463235;27;20010;-84
2024/05/01 03:07:01;;;;;;;15.85;4.85;;;;;;;;;;5462719;27;19995;-83
2024/05/01 03:09:32;;;;;;;9.90;4.57;;;;;;;;;;5463194;27;20006;-83
2024/05/01 03:12:05;;;;;;;16.60;4.60;;;;;;;;;;5461770;27;20076;-83
2024/05/01 03:14:35;;;;;;;14.45;5.28;;;;;;;;;;5462535;27;20073;-83
2024/05/01 03:17:05;;;;;;;15.70;5.05;;;;;;;;;;5463010;27;20006;-83
2024/05/01 03:19:36;;;;;;;12.57;5.50;;;;;;;;;;5463580;27;20057;-83
2024/05/01 03:22:06;;;;;;;15.63;5.07;;;;;;;;;;5462394;27;20010;-83
2024/05/01 03:24:37;;;;;;;14.93;5.97;;;;;;;;;;5446429;27;19998;-83
2024/05/01 03:27:07;;;;;;;12.85;5.50;;;;;;;;;;5463365;27;20010;-83
2024/05/01 03:29:37;;;;;;;11.68;5.35;;;;;;;;;;5463447;27;20423;-83
2024/05/01 03:32:10;;;;;;;11.30;4.60;;;;;;;;;;5462113;27;19999;-83
2024/05/01 03:34:40;;;;;;;14.02;5.32;;;;;;;;;;5462944;27;20002;-83
2024/05/01 03:37:13;;;;;;;13.63;5.43;;;;;;;;;;5462475;27;20082;-83
2024/05/01 03:39:43;;;;;;;14.18;5.43;;;;;;;;;;5462573;27;20006;-83
2024/05/01 03:42:13;;;;;;;13.85;4.82;;;;;;;;;;5444715;27;20006;-83
2024/05/01 03:44:47;;;;;;;14.75;4.80;;;;;;;;;;5461274;27;19994;-83
2024/05/01 03:47:20;;;;;;;11.60;5.40;;;;;;;;;;5462742;27;20030;-83
2024/05/01 03:49:50;;;;;;;15.80;4.85;;;;;;;;;;5462521;27;20096;-83
2024/05/01 03:52:23;;;;;;;10.30;4.90;;;;;;;;;;5462836;27;20010;-83
2024/05/01 03:54:54;;;;;;;16.30;5.38;;;;;;;;;;5447347;27;19998;-83
2024/05/01 03:57:24;;;;;;;12.75;5.53;;;;;;;;;;5462474;27;20080;-83
2024/05/01 03:59:54;;;;;;;13.50;5.13;;;;;;;;;;5462337;27;20200;-84
2024/05/01 04:02:27;;;;;;;15.35;5.65;;;;;;;;;;5461314;27;20002;-83
2024/05/01 04:04:57;;;;;;;14.15;5.07;;;;;;;;;;5472022;21;20419;-81
2024/05/01 04:07:27;;;;;;;17.23;5.95;;;;;;;;;;5458794;27;20002;-81
2024/05/01 04:09:58;;;;;;;16.40;5.68;;;;;;;;;;5459614;27;19994;-82
2024/05/01 04:12:28;;;;;;;14.95;6.63;;;;;;;;;;5458683;27;19994;-82
2024/05/01 04:14:58;;;;;;;17.25;6.20;;;;;;;;;;5459237;27;20440;-81
2024/05/01 04:17:28;;;;;;;13.43;6.30;;;;;;;;;;5458319;27;19999;-82
2024/05/01 04:19:59;;;;;;;12.63;6.15;;;;;;;;;;5458800;27;20495;-81
2024/05/01 04:22:29;;;;;;;18.83;6.30;;;;;;;;;;5458388;27;20010;-81
2024/05/01 04:24:59;;;;;;;14.43;6.18;;;;;;;;;;5458309;27;20008;-81
2024/05/01 04:27:29;;;;;;;10.80;5.55;;;;;;;;;;5458200;27;20309;-82
2024/05/01 04:30:00;;;;;;;15.45;5.88;;;;;;;;;;5458393;27;20009;-82
2024/05/01 04:32:30;;;;;;;14.38;6.60;;;;;;;;;;5458333;27;20049;-82
2024/05/01 04:35:00;;;;;;;12.05;6.40;;;;;;;;;;5457988;27;20005;-82
2024/05/01 04:37:30;;;;;;;18.23;6.15;;;;;;;;;;5458640;27;20076;-82
2024/05/01 04:40:01;;;;;;;14.88;6.45;;;;;;;;;;5458171;27;20069;-82
2024/05/01 04:42:31;;;;;;;14.85;6.72;;;;;;;;;;5457817;27;20018;-81
2024/05/01 04:45:01;;;;;;;17.63;6.45;;;;;;;;;;5458636;27;20353;-82
2024/05/01 04:47:31;;;;;;;15.85;6.68;;;;;;;;;;5457959;27;20093;-82
2024/05/01 04:50:02;;;;;;;20.05;6.82;;;;;;;;;;5457777;27;19994;-82
2024/05/01 04:52:32;;;;;;;12.77;6.03;;;;;;;;;;5457672;27;20002;-82
2024/05/01 04:55:04;;;;;;;15.65;7.25;;;;;;;;;;5457750;27;20455;-81
2024/05/01 04:57:34;;;;;;;17.98;6.85;;;;;;;;;;5444460;27;20018;-82
2024/05/01 05:00:04;;;;;;;13.07;6.88;;;;;;;;;;5457194;27;19991;-82
2024/05/01 05:02:35;;;;;;;15.13;7.00;;;;;;;;;;5457003;27;19998;-82
2024/05/01 05:05:05;;;;;;;18.13;7.10;;;;;;;;;;5457617;27;20006;-82
2024/05/01 05:07:36;;;;;;;18.45;7.45;;;;;;;;;;5457238;27;20077;-82
2024/05/01 05:10:06;;;;;;;11.07;6.13;;;;;;;;;;5458196;27;20006;-82
2024/05/01 05:12:36;;;;;;;18.42;6.28;;;;;;;;;;5457701;27;20021;-82
2024/05/01 05:15:07;;;;;;;15.25;7.35;;;;;;;;;;5461920;27;20014;-82
2024/05/01 05:17:37;;;;;;;15.57;7.90;;;;;;;;;;5461189;27;20021;-82
2024/05/01 05:20:07;;;;;;;17.50;7.40;;;;;;;;;;5461558;27;20006;-82
2024/05/01 05:22:38;;;;;;;15.75;7.32;;;;;;;;;;5461180;27;20458;-82
2024/05/01 05:25:08;;;;;;;14.32;7.18;;;;;;;;;;5461414;27;19999;-82
2024/05/01 05:27:39;;;;;;;13.40;6.75;;;;;;;;;;5461430;27;19998;-82
2024/05/01 05:30:09;;;;;;;19.83;7.57;;;;;;;;;;5445568;27;20017;-83
2024/05/01 05:32:40;;;;;;;17.38;8.35;;;;;;;;;;5460995;27;19998;-82
2024/05/01 05:35:10;;;;;;;16.95;7.35;;;;;;;;;;5461081;27;20076;-82
2024/05/01 05:37:40;;;;;;;14.20;6.40;;;;;;;;;;5461061;27;19994;-83
2024/05/01 05:40:10;;;;;;;13.57;7.13;;;;;;;;;;5436944;27;20002;-83
2024/05/01 05:42:40;;;;;;;12.40;6.67;;;;;;;;;;5461059;27;20002;-83
2024/05/01 05:45:11;;;;;;;17.00;6.45;;;;;;;;;;5461186;27;20003;-83
2024/05/01 05:47:41;;;;;;;17.35;7.60;;;;;;;;;;5461348;27;19995;-83
2024/05/01 05:50:11;;;;;;;18.88;7.25;;;;;;;;;;5460731;27;20013;-82
2024/05/01 05:52:42;;;;;;;17.07;7.27;;;;;;;;;;5461310;27;19994;-83
2024/05/01 05:55:12;;;;;;;16.25;7.68;;;;;;;;;;5445466;27;20019;-84
2024/05/01 05:57:45;;;;;;;16.23;7.90;;;;;;;;;;5461295;27;20016;-83
2024/05/01 06:00:15;;;;;;;13.70;7.75;;;;;;;;;;5461764;27;20010;-83
2024/05/01 06:02:46;;;;;;;15.90;7.40;;;;;;;;;;5460684;27;20085;-83
2024/05/01 06:05:16;;;;;;;16.33;7.55;;;;;;;;;;5461777;27;20006;-83
2024/05/01 06:07:47;;;;;;;13.27;7.20;;;;;;;;;;5461593;27;20010;-83
2024/05/01 06:10:17;;;;;;;19.03;7.40;;;;;;;;;;5461935;27;19994;-84
2024/05/01 06:12:47;;;;;;;14.73;6.95;;;;;;;;;;5462513;27;20560;-83
2024/05/01 06:15:18;;;;;;;13.67;7.13;;;;;;;;;;5462701;27;20075;-83
2024/05/01 06:17:48;;;;;;;14.27;7.27;;;;;;;;;;5462171;27;19991;-84
2024/05/01 06:20:20;;;;;;;16.93;6.47;;;;;;;;;;5462037;27;19998;-83
2024/05/01 06:22:50;;;;;;;13.80;6.78;;;;;;;;;;5461624;27;19998;-82
2024/05/01 06:25:20;;;;;;;16.03;7.30;;;;;;;;;;5444779;27;20084;-82
2024/05/01 06:27:51;;;;;;;17.43;8.33;;;;;;;;;;5433348;27;20170;-82
2024/05/01 06:30:23;;;;;;;14.27;7.63;;;;;;;;;;5461682;27;20313;-83
2024/05/01 06:32:53;;;;;;;13.20;7.43;;;;;;;;;;5462107;27;20003;-82
2024/05/01 06:35:24;;;;;;;19.20;8.30;;;;;;;;;;5461353;27;20025;-82
2024/05/01 06:37:54;;;;;;;15.07;6.93;;;;;;;;;;5445455;27;20021;-83
2024/05/01 06:40:24;;;;;;;16.93;6.97;;;;;;;;;;5461413;27;20092;-82
2024/05/01 06:42:54;;;;;;;14.23;6.93;;;;;;;;;;5460588;27;19994;-82
2024/05/01 06:45:24;;;;;;;17.73;7.30;;;;;;;;;;5461413;27;20006;-82
2024/05/01 06:47:55;;;;;;;15.50;7.37;;;;;;;;;;5461496;27;20017;-83
2024/05/01 06:50:25;;;;;;;13.50;7.00;;;;;;;;;;5461843;27;20009;-83
2024/05/01 06:52:55;;;;;;;16.57;7.20;;;;;;;;;;5461673;27;19998;-83
2024/05/01 06:55:25;;;;;;;16.03;6.97;;;;;;;;;;5461953;27;20002;-82
2024/05/01 06:57:56;;;;;;;14.13;6.70;;;;;;;;;;5461774;27;20006;-83
2024/05/01 07:00:26;;;;;;;12.13;6.40;;;;;;;;;;5460940;27;19994;-82
2024/05/01 07:02:56;;;;;;;17.67;6.77;;;;;;;;;;5445356;27;20093;-82
2024/05/01 07:05:26;;;;;;;12.43;6.23;;;;;;;;;;5460652;27;20068;-82
2024/05/01 07:07:56;;;;;;;16.43;5.77;;;;;;;;;;5461272;27;19998;-82
2024/05/01 07:10:29;;;;;;;12.13;5.37;;;;;;;;;;5461760;27;20037;-82
2024/05/01 07:13:00;;;;;;;14.43;6.20;;;;;;;;;;5461235;27;20010;-83
2024/05/01 07:15:30;;;;;;;11.47;5.87;;;;;;;;;;5461894;27;20345;-84
2024/05/01 07:18:00;;;;;;;16.07;5.90;;;;;;;;;;5460887;27;20085;-83
2024/05/01 07:20:30;;;;;;;14.00;6.23;;;;;;;;;;5459542;27;19998;-83
2024/05/01 07:23:01;;;;;;;14.23;5.60;;;;;;;;;;5459703;27;19994;-82
2024/05/01 07:25:31;;;;;;;17.00;5.80;;;;;;;;;;5459664;27;20089;-82
2024/05/01 07:28:02;;;;;;;14.37;5.63;;;;;;;;;;5459817;27;20324;-82
2024/05/01 07:30:32;;;;;;;18.13;6.07;;;;;;;;;;5459219;27;20444;-82
2024/05/01 07:33:07;;;;;;;17.80;5.43;;;;;;;;;;5459152;27;20225;-82
2024/05/01 07:35:37;;;;;;;13.23;5.68;;;;;;;;;;5442306;27;20017;-82
2024/05/01 07:38:11;;;;;;;16.00;5.10;;;;;;;;;;5439256;27;20035;-82
2024/05/01 07:40:41;;;;;;;13.85;5.45;;;;;;;;;;5459878;27;20013;-83
2024/05/01 07:43:12;;;;;;;14.27;5.53;;;;;;;;;;5458605;27;20006;-81
2024/05/01 07:45:43;;;;;;;18.83;5.93;;;;;;;;;;5459496;27;20013;-81
2024/05/01 07:48:13;;;;;;;15.07;5.32;;;;;;;;;;5458905;27;20006;-84
2024/05/01 07:50:44;;;;;;;16.90;5.57;;;;;;;;;;5459191;27;20344;-81
2024/05/01 07:53:14;;;;;;;14.67;5.17;;;;;;;;;;5458743;27;20429;-81
2024/05/01 07:55:44;;;;;;;15.77;6.17;;;;;;;;;;5458817;27;20531;-81
2024/05/01 07:58:14;;;;;;;14.73;5.20;;;;;;;;;;5458182;27;20006;-81
2024/05/01 08:00:45;;;;;;;13.67;5.97;;;;;;;;;;5457864;27;20495;-81
2024/05/01 08:03:15;;;;;;;13.73;5.53;;;;;;;;;;5457331;27;19990;-81
2024/05/01 08:05:45;;;;;;;20.93;4.93;;;;;;;;;;5457658;27;20488;-81
2024/05/01 08:08:15;;;;;;;19.50;5.50;;;;;;;;;;5458340;27;19990;-80
2024/05/01 08:10:45;;;;;;;13.43;4.20;;;;;;;;;;5457853;27;19995;-81
2024/05/01 08:13:16;;;;;;;11.43;4.20;;;;;;;;;;5457645;27;20433;-80
2024/05/01 08:15:46;;;;;;;14.77;4.60;;;;;;;;;;5458002;27;20017;-81
2024/05/01 08:18:16;;;;;;;9.13;4.07;;;;;;;;;;5458084;27;20010;-82
2024/05/01 08:20:46;;;;;;;13.50;4.77;;;;;;;;;;5457565;27;20008;-82
2024/05/01 08:23:17;;;;;;;13.60;3.83;;;;;;;;;;5457156;27;20425;-81
2024/05/01 08:25:50;;;;;;;13.83;4.23;;;;;;;;;;5458177;27;20314;-82
2024/05/01 08:28:20;;;;;;;13.68;4.03;;;;;;;;;;5457771;27;20241;-81
2024/05/01 08:30:51;;;;;;;14.17;4.23;;;;;;;;;;5458067;27;20005;-82
2024/05/01 08:33:27;;;;;;;11.90;3.83;;;;;;;;;;5459338;27;19999;-83
2024/05/01 08:35:59;;;;;;;11.70;3.47;;;;;;;;;;5443083;27;20010;-82
2024/05/01 08:38:30;;;;;;;15.77;3.95;;;;;;;;;;5459420;27;20333;-81
2024/05/01 08:41:02;;;;;;;14.23;3.80;;;;;;;;;;5458448;27;20009;-81
2024/05/01 08:43:33;;;;;;;14.13;4.20;;;;;;;;;;5457013;27;20072;-82
2024/05/01 08:46:03;;;;;;;13.17;4.07;;;;;;;;;;5458293;27;20452;-81
2024/05/01 08:48:37;;;;;;;17.43;3.87;;;;;;;;;;5461186;27;20006;-82
2024/05/01 08:51:09;;;;;;;13.35;3.78;;;;;;;;;;5462374;27;19998;-81
2024/05/01 08:53:41;;;;;;;14.57;4.03;;;;;;;;;;5455995;27;20072;-81
2024/05/01 08:56:12;;;;;;;13.95;4.40;;;;;;;;;;5462219;27;20010;-82
2024/05/01 08:58:44;;;;;;;10.38;4.03;;;;;;;;;;5461027;27;20035;-82
2024/05/01 09:01:14;;;;;;;11.98;4.13;;;;;;;;;;5454766;27;20012;-83
2024/05/01 09:03:45;;;;;;;14.47;4.40;;;;;;;;;;5461092;27;19999;-82
2024/05/01 09:06:15;;;;;;;15.00;4.87;;;;;;;;;;5432152;27;20009;-83
2024/05/01 09:09:07;;;;;;;12.20;4.20;;;;;;;;;;5463037;27;19998;-83
2024/05/01 09:11:44;;;;;;;13.70;4.72;;;;;;;;;;5461841;27;20002;-82
2024/05/01 09:14:14;;;;;;;15.27;4.88;;;;;;;;;;5461152;27;19998;-82
2024/05/01 09:16:44;;;;;;;18.70;4.70;;;;;;;;;;5461408;27;20341;-82
2024/05/01 09:19:15;;;;;;;16.60;4.53;;;;;;;;;;5462021;27;20013;-83
2024/05/01 09:21:45;;;;;;;14.00;4.90;;;;;;;;;;5461623;27;20013;-83
2024/05/01 09:24:15;;;;;;;11.43;4.97;;;;;;;;;;5461150;27;20356;-83
2024/05/01 09:26:45;;;;;;;16.37;5.30;;;;;;;;;;5460736;27;20012;-82
2024/05/01 09:29:16;;;;;;;15.03;5.27;;;;;;;;;;5461070;27;20005;-82
2024/05/01 09:31:46;;;;;;;11.97;4.80;;;;;;;;;;5462172;27;19998;-82
2024/05/01 09:34:19;;;;;;;15.43;5.20;;;;;;;;;;5460441;27;20046;-82
2024/05/01 09:36:52;;;;;;;18.25;5.40;;;;;;;;;;5432595;27;20002;-80
2024/05/01 09:39:26;;;;;;;16.15;5.32;;;;;;;;;;5430019;27;20031;-82
2024/05/01 09:41:58;;;;;;;15.40;5.50;;;;;;;;;;5459835;27;20015;-80
2024/05/01 09:44:31;;;;;;;11.98;4.15;;;;;;;;;;5458833;27;20361;-81
2024/05/01 09:47:02;;;;;;;10.25;5.00;;;;;;;;;;5459490;27;20449;-82
2024/05/01 09:49:33;;;;;;;16.83;4.90;;;;;;;;;;5459956;27;20002;-81
2024/05/01 09:52:04;;;;;;;13.32;5.03;;;;;;;;;;5459288;27;19999;-81
2024/05/01 09:54:35;;;;;;;15.20;5.80;;;;;;;;;;5459457;27;20467;-82
2024/05/01 09:57:05;;;;;;;12.48;5.57;;;;;;;;;;5459513;27;20038;-81
2024/05/01 09:59:35;;;;;;;15.90;5.60;;;;;;;;;;5437474;27;20007;-83
2024/05/01 10:02:09;;;;;;;21.00;6.47;;;;;;;;;;5458030;27;20002;-83
2024/05/01 10:04:39;;;;;;;16.60;5.85;;;;;;;;;;5476012;21;20002;-86
2024/05/01 10:07:10;;;;;;;15.23;5.87;;;;;;;;;;5466574;27;20007;-85
2024/05/01 10:09:44;;;;;;;16.27;5.57;;;;;;;;;;5466201;27;20002;-85
2024/05/01 10:12:15;;;;;;;14.35;6.72;;;;;;;;;;5465728;27;19999;-84
2024/05/01 10:14:45;;;;;;;14.07;5.77;;;;;;;;;;5466176;27;19998;-85
2024/05/01 10:17:17;;;;;;;16.97;5.27;;;;;;;;;;5466458;27;20347;-85
2024/05/01 10:19:51;;;;;;;13.55;5.75;;;;;;;;;;5466352;27;19999;-85
2024/05/01 10:22:22;;;;;;;17.15;6.43;;;;;;;;;;5465519;27;20009;-85
2024/05/01 10:24:58;;;;;;;15.37;5.53;;;;;;;;;;5466468;27;19998;-85
2024/05/01 10:27:29;;;;;;;16.92;5.40;;;;;;;;;;5465037;27;20009;-85
2024/05/01 10:30:04;;;;;;;13.77;6.07;;;;;;;;;;5437876;27;20006;-85
2024/05/01 10:32:34;;;;;;;14.25;5.68;;;;;;;;;;5466206;27;19994;-85
2024/05/01 10:35:06;;;;;;;16.37;5.53;;;;;;;;;;5465548;27;20034;-84
2024/05/01 10:37:36;;;;;;;20.33;5.47;;;;;;;;;;5466301;27;20080;-83
2024/05/01 10:40:07;;;;;;;14.90;5.60;;;;;;;;;;5465217;27;20014;-83
2024/05/01 10:42:37;;;;;;;10.33;4.40;;;;;;;;;;5463547;27;20333;-84
2024/05/01 10:45:08;;;;;;;18.53;5.40;;;;;;;;;;5465788;27;20009;-84
2024/05/01 10:47:38;;;;;;;17.27;5.93;;;;;;;;;;5450191;27;20002;-83
2024/05/01 10:50:11;;;;;;;10.73;4.53;;;;;;;;;;5465813;27;20015;-84
2024/05/01 10:52:41;;;;;;;17.77;6.10;;;;;;;;;;5465034;27;19999;-84
2024/05/01 10:55:12;;;;;;;14.43;5.50;;;;;;;;;;5464881;27;20012;-85
2024/05/01 10:57:42;;;;;;;14.37;5.53;;;;;;;;;;5465205;27;19990;-84
2024/05/01 11:00:12;;;;;;;18.67;5.90;;;;;;;;;;5465775;27;19998;-84
2024/05/01 11:02:43;;;;;;;15.60;6.70;;;;;;;;;;5464353;27;20002;-82
2024/05/01 11:05:13;;;;;;;19.17;6.17;;;;;;;;;;5465917;27;20023;-84
2024/05/01 11:07:50;;;;;;;15.30;5.97;;;;;;;;;;5449189;27;20003;-83
2024/05/01 11:10:21;;;;;;;17.10;6.15;;;;;;;;;;5465866;27;20058;-84
2024/05/01 11:12:53;;;;;;;16.15;6.68;;;;;;;;;;5459618;27;20002;-84
2024/05/01 11:15:24;;;;;;;14.15;6.43;;;;;;;;;;5453186;27;20017;-84
2024/05/01 11:17:56;;;;;;;13.88;5.53;;;;;;;;;;5465077;27;20417;-84
2024/05/01 11:20:26;;;;;;;13.60;6.35;;;;;;;;;;5464606;27;19999;-85
2024/05/01 11:22:57;;;;;;;16.50;7.10;;;;;;;;;;5463826;27;20022;-84
2024/05/01 11:25:27;;;;;;;18.53;7.30;;;;;;;;;;5464078;27;20002;-83
2024/05/01 11:27:58;;;;;;;17.27;6.53;;;;;;;;;;5464297;27;19990;-83
2024/05/01 11:30:28;;;;;;;18.13;6.20;;;;;;;;;;5447972;27;20006;-83
2024/05/01 11:32:58;;;;;;;12.80;5.50;;;;;;;;;;5444483;27;20002;-83
2024/05/01 11:35:29;;;;;;;16.23;7.03;;;;;;;;;;5464728;27;20012;-84
2024/05/01 11:37:59;;;;;;;14.13;7.13;;;;;;;;;;5465319;27;20006;-83
2024/05/01 11:40:29;;;;;;;13.60;6.73;;;;;;;;;;5435277;27;20328;-85
2024/05/01 11:43:01;;;;;;;16.57;6.97;;;;;;;;;;5464543;27;20021;-84
2024/05/01 11:45:31;;;;;;;17.73;7.63;;;;;;;;;;5463817;27;20038;-84
2024/05/01 11:48:02;;;;;;;17.70;7.27;;;;;;;;;;5463034;27;20002;-84
2024/05/01 11:50:32;;;;;;;11.20;6.33;;;;;;;;;;5463512;27;20057;-84
2024/05/01 11:53:02;;;;;;;19.80;7.10;;;;;;;;;;5462419;27;20017;-83
2024/05/01 11:55:35;;;;;;;14.30;5.70;;;;;;;;;;5460749;27;20010;-82
2024/05/01 11:58:09;;;;;;;19.15;7.25;;;;;;;;;;5463677;27;19999;-84
2024/05/01 12:00:40;;;;;;;13.52;6.38;;;;;;;;;;5460970;27;20034;-84
2024/05/01 12:03:13;;;;;;;16.90;7.90;;;;;;;;;;5462193;27;19999;-84
2024/05/01 12:05:46;;;;;;;19.42;6.97;;;;;;;;;;5459060;27;20325;-84
2024/05/01 12:08:24;;;;;;;23.45;6.68;;;;;;;;;;5469609;27;19998;-83
2024/05/01 12:10:54;;;;;;;14.77;6.75;;;;;;;;;;5458767;27;20089;-84
2024/05/01 12:13:24;;;;;;;21.27;7.83;;;;;;;;;;5459726;27;20002;-84
2024/05/01 12:15:55;;;;;;;16.50;7.77;;;;;;;;;;5461707;27;20008;-85
2024/05/01 12:18:25;;;;;;;18.90;7.68;;;;;;;;;;5454723;27;20020;-83
2024/05/01 12:21:03;;;;;;;12.93;6.67;;;;;;;;;;5433953;27;20006;-85
2024/05/01 12:23:34;;;;;;;15.35;7.35;;;;;;;;;;5462770;27;20325;-84
2024/05/01 12:26:10;;;;;;;21.33;8.53;;;;;;;;;;5431811;27;20003;-84
2024/05/01 12:28:41;;;;;;;17.13;7.82;;;;;;;;;;5433396;27;20006;-84
2024/05/01 12:31:30;;;;;;;13.43;6.13;;;;;;;;;;5431009;27;20070;-84
2024/05/01 12:34:00;;;;;;;14.15;7.72;;;;;;;;;;5460145;27;20042;-84
2024/05/01 12:36:31;;;;;;;14.20;6.90;;;;;;;;;;5430711;27;20003;-84
2024/05/01 12:39:01;;;;;;;22.77;8.13;;;;;;;;;;5460609;27;20234;-84
2024/05/01 12:41:36;;;;;;;21.17;8.70;;;;;;;;;;5430995;27;20006;-84
2024/05/01 12:44:10;;;;;;;23.38;9.23;;;;;;;;;;5459959;27;20730;-83
2024/05/01 12:46:41;;;;;;;17.83;8.45;;;;;;;;;;5430477;27;20021;-84
2024/05/01 12:49:11;;;;;;;;;;;;;;;;;;5430864;27;20081;-84
2024/05/01 12:51:43;;;;;;;18.55;9.35;;;;;;;;;;5460310;27;20368;-84
2024/05/01 12:54:29;;;;;;;18.58;10.75;;;;;;;;;;5459606;27;19999;-85
2024/05/01 12:57:01;;;;;;;20.13;7.72;;;;;;;;;;5429986;27;20495;-84
2024/05/01 12:59:40;;;;;;;14.18;8.02;;;;;;;;;;5460120;27;20002;-84
2024/05/01 13:02:20;;;;;;;20.73;8.57;;;;;;;;;;5429783;27;20558;-84
2024/05/01 13:04:50;;;;;;;19.05;8.18;;;;;;;;;;5459631;27;20098;-84
2024/05/01 13:07:21;;;;;;;14.38;7.80;;;;;;;;;;5460455;27;20015;-85
2024/05/01 13:09:51;;;;;;;24.43;11.07;;;;;;;;;;5460148;27;19996;-83
2024/05/01 13:12:21;;;;;;;20.00;9.63;;;;;;;;;;5459266;27;20444;-83
2024/05/01 13:14:52;;;;;;;20.83;9.53;;;;;;;;;;5459950;27;20017;-84
2024/05/01 13:17:22;;;;;;;22.90;10.15;;;;;;;;;;5429991;27;20434;-84
2024/05/01 13:19:54;;;;;;;20.30;9.40;;;;;;;;;;5459853;27;19998;-84
2024/05/01 13:22:27;;;;;;;;;;;;;;;;;;5430196;27;19998;-84
2024/05/01 13:24:59;;;;;;;18.23;9.38;;;;;;;;;;5460026;27;19927;-84
2024/05/01 13:27:30;;;;;;;15.82;10.15;;;;;;;;;;5459416;27;20466;-84
2024/05/01 13:30:00;;;;;;;18.00;10.23;;;;;;;;;;5459849;27;20073;-84
2024/05/01 13:32:33;;;;;;;22.80;8.93;;;;;;;;;;5459366;27;20358;-84
2024/05/01 13:35:08;;;;;;;21.70;10.52;;;;;;;;;;5456610;27;20442;-85
2024/05/01 13:37:38;;;;;;;25.40;11.10;;;;;;;;;;5461503;27;20465;-85
2024/05/01 13:40:24;;;;;;;18.90;10.43;;;;;;;;;;5460660;27;19998;-84
2024/05/01 13:43:00;;;;;;;21.40;8.77;;;;;;;;;;5459930;27;20002;-84
2024/05/01 13:45:34;;;;;;;26.55;10.82;;;;;;;;;;5461213;27;20007;-84
2024/05/01 13:48:05;;;;;;;21.70;10.70;;;;;;;;;;5460313;27;20013;-84
2024/05/01 13:50:38;;;;;;;23.15;10.20;;;;;;;;;;5461021;27;20136;-84
2024/05/01 13:53:14;;;;;;;19.60;10.35;;;;;;;;;;5430792;27;19998;-85
2024/05/01 13:55:45;;;;;;;18.42;9.65;;;;;;;;;;5430884;27;20074;-85
2024/05/01 13:58:15;;;;;;;22.50;9.97;;;;;;;;;;5461244;27;20461;-85
2024/05/01 14:00:45;;;;;;;19.80;9.03;;;;;;;;;;5461156;27;20322;-84
2024/05/01 14:03:29;;;;;;;17.67;8.47;;;;;;;;;;5460145;27;20014;-85
2024/05/01 14:06:03;;;;;;;19.85;8.75;;;;;;;;;;5460052;27;20006;-85
2024/05/01 14:08:43;;;;;;;18.92;9.63;;;;;;;;;;5460613;27;20299;-85
2024/05/01 14:11:23;;;;;;;20.50;9.55;;;;;;;;;;5460013;27;20018;-84
2024/05/01 14:13:57;;;;;;;19.58;8.30;;;;;;;;;;5459424;27;20453;-85
2024/05/01 14:16:32;;;;;;;20.77;9.10;;;;;;;;;;5430091;27;20009;-85
2024/05/01 14:19:05;;;;;;;17.48;8.38;;;;;;;;;;5428693;27;20022;-85
2024/05/01 14:21:37;;;;;;;13.82;6.60;;;;;;;;;;5460161;27;20014;-85
2024/05/01 14:24:24;;;;;;;16.85;8.68;;;;;;;;;;5453386;27;20093;-85
2024/05/01 14:26:55;;;;;;;15.43;9.10;;;;;;;;;;5459036;27;20007;-85
2024/05/01 14:29:31;;;;;;;23.57;9.40;;;;;;;;;;5458544;27;20013;-85
2024/05/01 14:32:04;;;;;;;19.35;8.82;;;;;;;;;;5458993;27;20030;-85
2024/05/01 14:34:46;;;;;;;20.13;9.52;;;;;;;;;;5456968;27;20088;-86
2024/05/01 14:37:36;;;;;;;19.55;7.68;;;;;;;;;;5456564;27;20057;-86
2024/05/01 14:40:25;;;;;;;13.35;7.82;;;;;;;;;;5458318;27;20002;-86
2024/05/01 14:42:56;;;;;;;17.60;8.77;;;;;;;;;;5456113;27;20002;-86
2024/05/01 14:45:26;;;;;;;;;;;;;;;;;;5457868;27;20420;-85
2024/05/01 14:47:57;;;;;;;23.27;11.15;;;;;;;;;;5456529;27;19997;-85
2024/05/01 14:50:37;;;;;;;22.25;10.52;;;;;;;;;;5458568;27;19998;-86
2024/05/01 14:53:11;;;;;;;16.77;7.82;;;;;;;;;;5458141;27;19999;-85
2024/05/01 14:55:45;;;;;;;14.38;7.03;;;;;;;;;;5457933;27;20010;-86